sensor_id;sensor_type;location;lat;lon;timestamp;pressure;altitude;pressure_sealevel;temperature;humidity
55171;BME280;41060;47.510;8.680;2023-02-02T00:01:18;98089.13;;;7.21;44.18
55171;BME280;41060;47.510;8.680;2023-02-02T00:03:45;98074.03;;;7.42;43.91
55171;BME280;41060;47.510;8.680;2023-02-02T00:06:13;98072.38;;;7.57;43.64
55171;BME280;41060;47.510;8.680;2023-02-02T00:08:40;98081.06;;;7.07;44.59
55171;BME280;41060;47.510;8.680;2023-02-02T00:11:06;98065.03;;;6.95;44.75
55171;BME280;41060;47.510;8.680;2023-02-02T00:13:34;98074.41;;;7.17;44.30
55171;BME280;41060;47.510;8.680;2023-02-02T00:16:37;98035.13;;;6.78;44.66
55171;BME280;41060;47.510;8.680;2023-02-02T00:19:05;98067.50;;;7.32;43.88
55171;BME280;41060;47.510;8.680;2023-02-02T00:21:33;98048.31;;;7.13;44.00
55171;BME280;41060;47.510;8.680;2023-02-02T00:23:59;98058.66;;;6.99;44.68
55171;BME280;41060;47.510;8.680;2023-02-02T00:26:26;98054.97;;;7.20;44.27
55171;BME280;41060;47.510;8.680;2023-02-02T00:28:54;98045.59;;;7.14;44.02
55171;BME280;41060;47.510;8.680;2023-02-02T00:31:21;98066.50;;;7.17;44.14
55171;BME280;41060;47.510;8.680;2023-02-02T00:33:49;98067.59;;;6.96;44.89
55171;BME280;41060;47.510;8.680;2023-02-02T00:36:17;98077.13;;;7.16;44.41
55171;BME280;41060;47.510;8.680;2023-02-02T00:38:44;98076.03;;;7.37;44.04
55171;BME280;41060;47.510;8.680;2023-02-02T00:41:11;98070.47;;;7.59;43.26
55171;BME280;41060;47.510;8.680;2023-02-02T00:43:38;98070.00;;;7.35;43.84
55171;BME280;41060;47.510;8.680;2023-02-02T00:46:09;98078.97;;;6.97;45.06
55171;BME280;41060;47.510;8.680;2023-02-02T00:48:38;98020.25;;;6.60;45.07
55171;BME280;41060;47.510;8.680;2023-02-02T00:51:05;98046.88;;;7.40;43.84
55171;BME280;41060;47.510;8.680;2023-02-02T00:53:31;98076.31;;;7.98;43.22
55171;BME280;41060;47.510;8.680;2023-02-02T00:55:58;98076.16;;;8.02;42.60
55171;BME280;41060;47.510;8.680;2023-02-02T00:58:25;98083.94;;;7.72;43.69
55171;BME280;41060;47.510;8.680;2023-02-02T01:00:51;98084.09;;;8.02;42.68
55171;BME280;41060;47.510;8.680;2023-02-02T01:03:20;98087.41;;;8.21;42.29
55171;BME280;41060;47.510;8.680;2023-02-02T01:05:47;98083.34;;;8.31;42.39
55171;BME280;41060;47.510;8.680;2023-02-02T01:08:14;98092.84;;;8.33;42.27
55171;BME280;41060;47.510;8.680;2023-02-02T01:10:41;98091.56;;;8.09;42.83
55171;BME280;41060;47.510;8.680;2023-02-02T01:13:08;98097.19;;;7.70;43.25
55171;BME280;41060;47.510;8.680;2023-02-02T01:15:35;98090.31;;;7.83;43.33
55171;BME280;41060;47.510;8.680;2023-02-02T01:18:03;98081.44;;;7.51;43.63
55171;BME280;41060;47.510;8.680;2023-02-02T01:20:31;98092.84;;;7.69;43.95
55171;BME280;41060;47.510;8.680;2023-02-02T01:22:57;98094.00;;;7.96;43.42
55171;BME280;41060;47.510;8.680;2023-02-02T01:25:24;98091.81;;;7.54;44.27
55171;BME280;41060;47.510;8.680;2023-02-02T01:27:52;98100.13;;;7.47;44.41
55171;BME280;41060;47.510;8.680;2023-02-02T01:30:18;98096.34;;;7.35;44.81
55171;BME280;41060;47.510;8.680;2023-02-02T01:32:45;98088.78;;;7.45;44.70
55171;BME280;41060;47.510;8.680;2023-02-02T01:35:12;98098.66;;;7.24;45.28
55171;BME280;41060;47.510;8.680;2023-02-02T01:37:40;98102.84;;;7.45;44.91
55171;BME280;41060;47.510;8.680;2023-02-02T01:40:09;98082.31;;;7.00;45.55
55171;BME280;41060;47.510;8.680;2023-02-02T01:42:36;98105.56;;;7.27;45.38
55171;BME280;41060;47.510;8.680;2023-02-02T01:45:17;98097.78;;;7.06;45.52
55171;BME280;41060;47.510;8.680;2023-02-02T01:47:49;98105.13;;;6.82;46.84
55171;BME280;41060;47.510;8.680;2023-02-02T01:50:18;98105.69;;;6.34;47.85
55171;BME280;41060;47.510;8.680;2023-02-02T01:52:48;98089.97;;;6.52;47.82
55171;BME280;41060;47.510;8.680;2023-02-02T01:55:19;98104.75;;;6.54;47.99
55171;BME280;41060;47.510;8.680;2023-02-02T01:57:51;98059.84;;;6.76;46.77
55171;BME280;41060;47.510;8.680;2023-02-02T02:00:18;98099.34;;;7.10;46.55
55171;BME280;41060;47.510;8.680;2023-02-02T02:02:51;98095.88;;;7.10;46.42
55171;BME280;41060;47.510;8.680;2023-02-02T02:05:23;98070.91;;;6.82;46.68
55171;BME280;41060;47.510;8.680;2023-02-02T02:07:57;98103.94;;;6.71;47.92
55171;BME280;41060;47.510;8.680;2023-02-02T02:10:25;98113.00;;;6.65;48.33
55171;BME280;41060;47.510;8.680;2023-02-02T02:12:53;98110.97;;;6.70;48.42
55171;BME280;41060;47.510;8.680;2023-02-02T02:15:20;98076.75;;;6.34;48.76
55171;BME280;41060;47.510;8.680;2023-02-02T02:18:14;98116.00;;;6.58;49.23
55171;BME280;41060;47.510;8.680;2023-02-02T02:21:15;98136.28;;;6.37;50.92
55171;BME280;41060;47.510;8.680;2023-02-02T02:24:46;98118.78;;;6.36;50.83
55171;BME280;41060;47.510;8.680;2023-02-02T02:30:49;98079.47;;;5.56;52.92
55171;BME280;41060;47.510;8.680;2023-02-02T02:33:24;98126.72;;;5.97;53.32
55171;BME280;41060;47.510;8.680;2023-02-02T02:35:56;98110.72;;;5.83;53.71
55171;BME280;41060;47.510;8.680;2023-02-02T02:38:35;98103.06;;;5.97;53.56
55171;BME280;41060;47.510;8.680;2023-02-02T02:41:10;98105.47;;;5.62;54.50
55171;BME280;41060;47.510;8.680;2023-02-02T02:43:41;98070.13;;;4.88;56.21
55171;BME280;41060;47.510;8.680;2023-02-02T02:46:11;98115.19;;;5.60;55.32
55171;BME280;41060;47.510;8.680;2023-02-02T02:48:42;97883.19;;;4.23;55.16
55171;BME280;41060;47.510;8.680;2023-02-02T02:54:17;98111.97;;;5.34;55.95
55171;BME280;41060;47.510;8.680;2023-02-02T02:56:55;98120.25;;;5.24;56.53
55171;BME280;41060;47.510;8.680;2023-02-02T02:59:34;98094.66;;;5.50;55.74
55171;BME280;41060;47.510;8.680;2023-02-02T03:02:15;98107.22;;;5.62;55.50
55171;BME280;41060;47.510;8.680;2023-02-02T03:04:53;98041.38;;;4.85;55.62
55171;BME280;41060;47.510;8.680;2023-02-02T03:07:25;98108.88;;;5.64;55.42
55171;BME280;41060;47.510;8.680;2023-02-02T03:09:54;98109.56;;;5.49;55.14
55171;BME280;41060;47.510;8.680;2023-02-02T03:12:23;98070.84;;;4.92;56.45
55171;BME280;41060;47.510;8.680;2023-02-02T03:14:50;98122.91;;;5.43;55.57
55171;BME280;41060;47.510;8.680;2023-02-02T03:17:16;98119.75;;;5.15;56.50
55171;BME280;41060;47.510;8.680;2023-02-02T03:19:44;98114.50;;;5.15;55.89
55171;BME280;41060;47.510;8.680;2023-02-02T03:22:11;98103.56;;;5.25;55.92
55171;BME280;41060;47.510;8.680;2023-02-02T03:24:38;98112.84;;;5.34;55.50
55171;BME280;41060;47.510;8.680;2023-02-02T03:27:05;98114.88;;;5.48;55.59
55171;BME280;41060;47.510;8.680;2023-02-02T03:29:32;98114.91;;;5.66;55.15
55171;BME280;41060;47.510;8.680;2023-02-02T03:31:58;98086.56;;;5.34;55.17
55171;BME280;41060;47.510;8.680;2023-02-02T03:34:25;98124.69;;;5.22;55.82
55171;BME280;41060;47.510;8.680;2023-02-02T03:36:52;98103.09;;;5.16;56.18
55171;BME280;41060;47.510;8.680;2023-02-02T03:39:20;98119.38;;;5.44;55.61
55171;BME280;41060;47.510;8.680;2023-02-02T03:41:47;98129.56;;;5.32;55.91
55171;BME280;41060;47.510;8.680;2023-02-02T03:44:14;98008.44;;;4.78;55.49
55171;BME280;41060;47.510;8.680;2023-02-02T03:46:40;98116.56;;;5.49;55.35
55171;BME280;41060;47.510;8.680;2023-02-02T03:49:07;98120.97;;;5.48;55.38
55171;BME280;41060;47.510;8.680;2023-02-02T03:51:34;98126.34;;;5.45;55.26
55171;BME280;41060;47.510;8.680;2023-02-02T03:54:00;98121.25;;;5.42;55.72
55171;BME280;41060;47.510;8.680;2023-02-02T03:56:29;98114.53;;;5.55;54.96
55171;BME280;41060;47.510;8.680;2023-02-02T03:58:55;98126.22;;;5.68;55.18
55171;BME280;41060;47.510;8.680;2023-02-02T04:01:26;98129.63;;;5.50;55.43
55171;BME280;41060;47.510;8.680;2023-02-02T04:03:55;98125.09;;;5.54;55.30
55171;BME280;41060;47.510;8.680;2023-02-02T04:06:22;98128.84;;;5.48;55.51
55171;BME280;41060;47.510;8.680;2023-02-02T04:08:48;98128.03;;;5.66;54.83
55171;BME280;41060;47.510;8.680;2023-02-02T04:11:15;98129.47;;;5.74;55.08
55171;BME280;41060;47.510;8.680;2023-02-02T04:13:44;98116.44;;;5.32;55.27
55171;BME280;41060;47.510;8.680;2023-02-02T04:16:11;98130.22;;;5.16;56.55
55171;BME280;41060;47.510;8.680;2023-02-02T04:18:38;98141.25;;;5.45;55.61
55171;BME280;41060;47.510;8.680;2023-02-02T04:21:06;98133.72;;;5.57;55.31
55171;BME280;41060;47.510;8.680;2023-02-02T04:23:33;98147.28;;;5.67;55.23
55171;BME280;41060;47.510;8.680;2023-02-02T04:26:00;98092.16;;;5.65;54.39
55171;BME280;41060;47.510;8.680;2023-02-02T04:28:30;98131.84;;;5.80;54.43
55171;BME280;41060;47.510;8.680;2023-02-02T04:30:58;98134.47;;;5.59;54.91
55171;BME280;41060;47.510;8.680;2023-02-02T04:33:33;98137.78;;;5.64;54.83
55171;BME280;41060;47.510;8.680;2023-02-02T04:36:00;98132.97;;;5.94;54.18
55171;BME280;41060;47.510;8.680;2023-02-02T04:38:27;98133.16;;;5.69;54.42
55171;BME280;41060;47.510;8.680;2023-02-02T04:40:54;98128.78;;;5.70;54.54
55171;BME280;41060;47.510;8.680;2023-02-02T04:43:20;98136.00;;;5.65;54.88
55171;BME280;41060;47.510;8.680;2023-02-02T04:45:54;98122.09;;;5.43;55.00
55171;BME280;41060;47.510;8.680;2023-02-02T04:48:21;98121.03;;;5.47;55.31
55171;BME280;41060;47.510;8.680;2023-02-02T04:50:49;98119.06;;;5.72;54.67
55171;BME280;41060;47.510;8.680;2023-02-02T04:53:15;98118.59;;;5.62;54.62
55171;BME280;41060;47.510;8.680;2023-02-02T04:55:42;98127.00;;;5.71;54.68
55171;BME280;41060;47.510;8.680;2023-02-02T04:58:09;98125.00;;;5.76;54.36
55171;BME280;41060;47.510;8.680;2023-02-02T05:00:35;98123.97;;;6.00;56.47
55171;BME280;41060;47.510;8.680;2023-02-02T05:03:04;98129.00;;;6.42;61.72
55171;BME280;41060;47.510;8.680;2023-02-02T05:05:32;98133.50;;;6.21;55.29
55171;BME280;41060;47.510;8.680;2023-02-02T05:07:59;98126.41;;;6.23;52.89
55171;BME280;41060;47.510;8.680;2023-02-02T05:10:25;98133.75;;;5.96;53.25
55171;BME280;41060;47.510;8.680;2023-02-02T05:12:52;98130.00;;;6.02;53.25
55171;BME280;41060;47.510;8.680;2023-02-02T05:15:21;98139.81;;;6.17;52.50
55171;BME280;41060;47.510;8.680;2023-02-02T05:17:48;98134.06;;;6.09;52.70
55171;BME280;41060;47.510;8.680;2023-02-02T05:20:15;98119.84;;;6.13;52.56
55171;BME280;41060;47.510;8.680;2023-02-02T05:22:43;98114.34;;;6.18;52.36
55171;BME280;41060;47.510;8.680;2023-02-02T05:25:10;98114.50;;;5.96;52.81
55171;BME280;41060;47.510;8.680;2023-02-02T05:27:37;98088.53;;;5.88;52.92
55171;BME280;41060;47.510;8.680;2023-02-02T05:30:04;98131.13;;;5.96;53.02
55171;BME280;41060;47.510;8.680;2023-02-02T05:32:34;98129.34;;;5.97;52.73
55171;BME280;41060;47.510;8.680;2023-02-02T05:35:01;98124.59;;;6.05;52.50
55171;BME280;41060;47.510;8.680;2023-02-02T05:37:28;98121.72;;;5.91;53.25
55171;BME280;41060;47.510;8.680;2023-02-02T05:39:59;98132.53;;;5.64;53.27
55171;BME280;41060;47.510;8.680;2023-02-02T05:42:26;98118.91;;;5.75;53.27
55171;BME280;41060;47.510;8.680;2023-02-02T05:44:55;98121.34;;;5.80;53.23
55171;BME280;41060;47.510;8.680;2023-02-02T05:47:22;98132.31;;;5.69;53.49
55171;BME280;41060;47.510;8.680;2023-02-02T05:49:52;98135.22;;;5.63;53.60
55171;BME280;41060;47.510;8.680;2023-02-02T05:52:21;98131.19;;;5.95;52.61
55171;BME280;41060;47.510;8.680;2023-02-02T05:54:49;98108.81;;;5.25;53.31
55171;BME280;41060;47.510;8.680;2023-02-02T05:57:17;98125.63;;;5.82;53.11
55171;BME280;41060;47.510;8.680;2023-02-02T05:59:43;98124.88;;;5.79;52.96
55171;BME280;41060;47.510;8.680;2023-02-02T06:02:12;98135.50;;;5.96;52.98
55171;BME280;41060;47.510;8.680;2023-02-02T06:04:38;98133.84;;;5.54;53.54
55171;BME280;41060;47.510;8.680;2023-02-02T06:07:05;98109.66;;;5.46;53.76
55171;BME280;41060;47.510;8.680;2023-02-02T06:09:32;98129.63;;;5.71;53.41
55171;BME280;41060;47.510;8.680;2023-02-02T06:11:58;98145.00;;;5.80;53.32
55171;BME280;41060;47.510;8.680;2023-02-02T06:14:26;98047.25;;;5.33;52.91
55171;BME280;41060;47.510;8.680;2023-02-02T06:16:54;98142.31;;;5.81;53.15
55171;BME280;41060;47.510;8.680;2023-02-02T06:19:20;98141.56;;;5.78;53.23
55171;BME280;41060;47.510;8.680;2023-02-02T06:21:47;98116.09;;;5.80;52.60
55171;BME280;41060;47.510;8.680;2023-02-02T06:24:14;98148.03;;;6.10;52.28
55171;BME280;41060;47.510;8.680;2023-02-02T06:26:40;98150.78;;;5.88;52.74
55171;BME280;41060;47.510;8.680;2023-02-02T06:29:11;98089.38;;;5.50;53.23
55171;BME280;41060;47.510;8.680;2023-02-02T06:31:39;98107.69;;;5.72;52.69
55171;BME280;41060;47.510;8.680;2023-02-02T06:34:06;98157.84;;;5.65;53.46
55171;BME280;41060;47.510;8.680;2023-02-02T06:36:35;98180.69;;;5.85;53.05
55171;BME280;41060;47.510;8.680;2023-02-02T06:39:03;98050.25;;;5.23;52.28
55171;BME280;41060;47.510;8.680;2023-02-02T06:41:33;98162.88;;;5.92;52.53
55171;BME280;41060;47.510;8.680;2023-02-02T06:44:00;98169.38;;;5.43;54.06
55171;BME280;41060;47.510;8.680;2023-02-02T06:46:27;98127.00;;;5.71;52.52
55171;BME280;41060;47.510;8.680;2023-02-02T06:48:55;98166.03;;;6.00;52.33
55171;BME280;41060;47.510;8.680;2023-02-02T06:51:21;98150.88;;;6.05;51.71
55171;BME280;41060;47.510;8.680;2023-02-02T06:53:49;98171.34;;;6.37;51.45
55171;BME280;41060;47.510;8.680;2023-02-02T06:56:16;98170.59;;;6.34;51.44
55171;BME280;41060;47.510;8.680;2023-02-02T06:58:42;98166.47;;;6.28;51.59
55171;BME280;41060;47.510;8.680;2023-02-02T07:01:12;98170.09;;;6.07;51.90
55171;BME280;41060;47.510;8.680;2023-02-02T07:03:39;98155.59;;;6.17;51.64
55171;BME280;41060;47.510;8.680;2023-02-02T07:06:12;98155.03;;;6.29;51.25
55171;BME280;41060;47.510;8.680;2023-02-02T07:08:40;98163.22;;;6.42;50.83
55171;BME280;41060;47.510;8.680;2023-02-02T07:11:07;98164.34;;;6.36;51.12
55171;BME280;41060;47.510;8.680;2023-02-02T07:13:34;98157.78;;;6.64;50.30
55171;BME280;41060;47.510;8.680;2023-02-02T07:16:02;98162.91;;;6.48;50.79
55171;BME280;41060;47.510;8.680;2023-02-02T07:18:29;98168.63;;;6.58;50.41
55171;BME280;41060;47.510;8.680;2023-02-02T07:20:57;98171.16;;;6.40;50.80
55171;BME280;41060;47.510;8.680;2023-02-02T07:23:26;98170.31;;;6.21;51.29
55171;BME280;41060;47.510;8.680;2023-02-02T07:25:59;98167.50;;;6.44;50.80
55171;BME280;41060;47.510;8.680;2023-02-02T07:28:26;98168.00;;;6.53;50.40
55171;BME280;41060;47.510;8.680;2023-02-02T07:30:53;98167.06;;;6.35;50.87
55171;BME280;41060;47.510;8.680;2023-02-02T07:33:20;97955.28;;;5.14;50.35
55171;BME280;41060;47.510;8.680;2023-02-02T07:35:47;98179.22;;;6.37;50.69
55171;BME280;41060;47.510;8.680;2023-02-02T07:38:14;98185.97;;;6.43;50.57
55171;BME280;41060;47.510;8.680;2023-02-02T07:40:42;98194.31;;;6.53;50.04
55171;BME280;41060;47.510;8.680;2023-02-02T07:43:12;98195.63;;;6.42;50.40
55171;BME280;41060;47.510;8.680;2023-02-02T07:45:38;98205.38;;;6.22;50.44
55171;BME280;41060;47.510;8.680;2023-02-02T07:48:05;98199.75;;;6.29;50.82
55171;BME280;41060;47.510;8.680;2023-02-02T07:50:32;98196.66;;;6.59;50.00
55171;BME280;41060;47.510;8.680;2023-02-02T07:52:59;98175.59;;;6.59;49.67
55171;BME280;41060;47.510;8.680;2023-02-02T07:55:25;98203.91;;;6.72;49.32
55171;BME280;41060;47.510;8.680;2023-02-02T07:57:54;98094.97;;;6.01;49.68
55171;BME280;41060;47.510;8.680;2023-02-02T08:00:25;98207.44;;;6.90;49.40
55171;BME280;41060;47.510;8.680;2023-02-02T08:02:52;98202.63;;;6.81;49.26
55171;BME280;41060;47.510;8.680;2023-02-02T08:05:19;98188.19;;;6.52;49.36
55171;BME280;41060;47.510;8.680;2023-02-02T08:07:46;98201.13;;;6.75;49.24
55171;BME280;41060;47.510;8.680;2023-02-02T08:10:14;98156.13;;;6.44;49.10
55171;BME280;41060;47.510;8.680;2023-02-02T08:12:41;98203.47;;;6.63;49.32
55171;BME280;41060;47.510;8.680;2023-02-02T08:15:10;98198.34;;;6.41;49.92
55171;BME280;41060;47.510;8.680;2023-02-02T08:17:37;98202.69;;;6.61;49.62
55171;BME280;41060;47.510;8.680;2023-02-02T08:20:05;98200.31;;;6.92;49.07
55171;BME280;41060;47.510;8.680;2023-02-02T08:22:32;98182.72;;;7.11;48.29
55171;BME280;41060;47.510;8.680;2023-02-02T08:24:59;98201.63;;;7.37;47.82
55171;BME280;41060;47.510;8.680;2023-02-02T08:27:26;98208.38;;;6.89;48.46
55171;BME280;41060;47.510;8.680;2023-02-02T08:29:52;98214.03;;;6.99;48.48
55171;BME280;41060;47.510;8.680;2023-02-02T08:32:20;98217.34;;;7.21;48.11
55171;BME280;41060;47.510;8.680;2023-02-02T08:34:47;98212.78;;;7.24;47.77
55171;BME280;41060;47.510;8.680;2023-02-02T08:37:16;98212.69;;;7.09;48.06
55171;BME280;41060;47.510;8.680;2023-02-02T08:39:42;98212.97;;;6.84;48.34
55171;BME280;41060;47.510;8.680;2023-02-02T08:42:09;98220.34;;;7.13;47.97
55171;BME280;41060;47.510;8.680;2023-02-02T08:44:39;98212.00;;;7.05;48.16
55171;BME280;41060;47.510;8.680;2023-02-02T08:47:06;98216.50;;;7.20;47.84
55171;BME280;41060;47.510;8.680;2023-02-02T08:49:34;98189.47;;;7.17;47.33
55171;BME280;41060;47.510;8.680;2023-02-02T08:52:01;98206.41;;;7.11;48.01
55171;BME280;41060;47.510;8.680;2023-02-02T08:54:27;98207.28;;;7.12;47.85
55171;BME280;41060;47.510;8.680;2023-02-02T08:56:56;98203.78;;;7.11;47.87
55171;BME280;41060;47.510;8.680;2023-02-02T08:59:22;98218.59;;;7.31;48.01
55171;BME280;41060;47.510;8.680;2023-02-02T09:01:49;98210.66;;;7.50;47.21
55171;BME280;41060;47.510;8.680;2023-02-02T09:04:17;98212.06;;;7.57;47.24
55171;BME280;41060;47.510;8.680;2023-02-02T09:06:45;98214.84;;;7.54;47.17
55171;BME280;41060;47.510;8.680;2023-02-02T09:09:13;98101.81;;;6.96;47.04
55171;BME280;41060;47.510;8.680;2023-02-02T09:11:41;98213.66;;;7.78;46.93
55171;BME280;41060;47.510;8.680;2023-02-02T09:14:09;98211.28;;;7.55;47.23
55171;BME280;41060;47.510;8.680;2023-02-02T09:16:37;98212.81;;;7.42;47.48
55171;BME280;41060;47.510;8.680;2023-02-02T09:19:05;98197.78;;;7.44;47.40
55171;BME280;41060;47.510;8.680;2023-02-02T09:21:31;98209.72;;;7.51;47.48
55171;BME280;41060;47.510;8.680;2023-02-02T09:24:05;98211.31;;;7.36;47.68
55171;BME280;41060;47.510;8.680;2023-02-02T09:26:32;98219.41;;;7.50;47.72
55171;BME280;41060;47.510;8.680;2023-02-02T09:29:01;98214.50;;;7.79;47.31
55171;BME280;41060;47.510;8.680;2023-02-02T09:31:29;98209.19;;;7.61;47.71
55171;BME280;41060;47.510;8.680;2023-02-02T09:33:59;98208.47;;;7.58;47.70
55171;BME280;41060;47.510;8.680;2023-02-02T09:36:27;98199.50;;;7.62;47.53
55171;BME280;41060;47.510;8.680;2023-02-02T09:38:54;98205.09;;;7.73;47.20
55171;BME280;41060;47.510;8.680;2023-02-02T09:41:43;98212.34;;;7.51;47.56
55171;BME280;41060;47.510;8.680;2023-02-02T09:44:25;98219.81;;;7.43;47.96
55171;BME280;41060;47.510;8.680;2023-02-02T09:46:59;98243.38;;;7.63;47.58
55171;BME280;41060;47.510;8.680;2023-02-02T09:49:36;98251.44;;;7.43;48.06
55171;BME280;41060;47.510;8.680;2023-02-02T09:52:11;98252.06;;;7.65;47.54
55171;BME280;41060;47.510;8.680;2023-02-02T09:54:41;98264.47;;;7.63;47.31
55171;BME280;41060;47.510;8.680;2023-02-02T09:57:14;98265.53;;;7.59;47.43
55171;BME280;41060;47.510;8.680;2023-02-02T09:59:43;98275.91;;;7.45;47.87
55171;BME280;41060;47.510;8.680;2023-02-02T10:02:17;98276.63;;;7.66;47.44
55171;BME280;41060;47.510;8.680;2023-02-02T10:04:47;98281.84;;;7.31;48.29
55171;BME280;41060;47.510;8.680;2023-02-02T10:07:20;98203.59;;;6.41;49.24
55171;BME280;41060;47.510;8.680;2023-02-02T10:09:57;98288.84;;;6.95;49.67
55171;BME280;41060;47.510;8.680;2023-02-02T10:12:33;98289.13;;;7.26;48.90
55171;BME280;41060;47.510;8.680;2023-02-02T10:15:04;98300.78;;;7.39;48.33
55171;BME280;41060;47.510;8.680;2023-02-02T10:17:42;98301.03;;;7.52;47.93
55171;BME280;41060;47.510;8.680;2023-02-02T10:20:16;98286.78;;;7.56;48.15
55171;BME280;41060;47.510;8.680;2023-02-02T10:22:49;98281.47;;;7.39;47.95
55171;BME280;41060;47.510;8.680;2023-02-02T10:25:16;98311.72;;;7.13;48.67
55171;BME280;41060;47.510;8.680;2023-02-02T10:27:54;98310.66;;;7.53;48.14
55171;BME280;41060;47.510;8.680;2023-02-02T10:30:35;98315.16;;;7.13;48.93
55171;BME280;41060;47.510;8.680;2023-02-02T10:33:10;98296.97;;;7.45;48.07
55171;BME280;41060;47.510;8.680;2023-02-02T10:35:44;98301.94;;;7.51;47.52
55171;BME280;41060;47.510;8.680;2023-02-02T10:38:18;98272.38;;;7.63;47.17
55171;BME280;41060;47.510;8.680;2023-02-02T10:40:56;98308.88;;;7.72;47.30
55171;BME280;41060;47.510;8.680;2023-02-02T10:43:48;98310.34;;;7.78;47.29
55171;BME280;41060;47.510;8.680;2023-02-02T10:46:21;98318.91;;;8.00;47.03
55171;BME280;41060;47.510;8.680;2023-02-02T10:48:53;98316.13;;;7.67;47.01
55171;BME280;41060;47.510;8.680;2023-02-02T10:51:27;98316.53;;;7.58;47.29
55171;BME280;41060;47.510;8.680;2023-02-02T10:53:56;98315.06;;;7.52;47.68
55171;BME280;41060;47.510;8.680;2023-02-02T10:56:26;98299.25;;;7.88;46.77
55171;BME280;41060;47.510;8.680;2023-02-02T10:59:01;98292.44;;;8.02;46.36
55171;BME280;41060;47.510;8.680;2023-02-02T11:01:30;98282.44;;;7.91;46.96
55171;BME280;41060;47.510;8.680;2023-02-02T11:03:57;98278.56;;;7.62;47.21
55171;BME280;41060;47.510;8.680;2023-02-02T11:06:42;98277.78;;;7.79;47.02
55171;BME280;41060;47.510;8.680;2023-02-02T11:09:20;98273.44;;;7.59;47.68
55171;BME280;41060;47.510;8.680;2023-02-02T11:11:50;98273.63;;;7.56;47.64
55171;BME280;41060;47.510;8.680;2023-02-02T11:14:29;98278.56;;;7.62;47.37
55171;BME280;41060;47.510;8.680;2023-02-02T11:17:00;98237.22;;;7.45;47.17
55171;BME280;41060;47.510;8.680;2023-02-02T11:19:30;98227.72;;;7.60;47.23
55171;BME280;41060;47.510;8.680;2023-02-02T11:21:58;98254.00;;;8.30;46.02
55171;BME280;41060;47.510;8.680;2023-02-02T11:24:27;98266.03;;;8.36;46.48
55171;BME280;41060;47.510;8.680;2023-02-02T11:26:58;98254.63;;;7.67;47.08
55171;BME280;41060;47.510;8.680;2023-02-02T11:29:29;98251.69;;;7.37;48.17
55171;BME280;41060;47.510;8.680;2023-02-02T11:31:57;98229.94;;;7.86;47.18
55171;BME280;41060;47.510;8.680;2023-02-02T11:34:42;98259.56;;;8.09;46.72
55171;BME280;41060;47.510;8.680;2023-02-02T11:37:11;98266.75;;;8.55;46.20
55171;BME280;41060;47.510;8.680;2023-02-02T11:39:41;98283.84;;;8.48;45.72
55171;BME280;41060;47.510;8.680;2023-02-02T11:42:12;98246.28;;;7.93;46.07
55171;BME280;41060;47.510;8.680;2023-02-02T11:44:45;98292.13;;;7.90;47.38
55171;BME280;41060;47.510;8.680;2023-02-02T11:47:19;98298.53;;;8.54;45.94
55171;BME280;41060;47.510;8.680;2023-02-02T11:49:48;98283.75;;;8.67;45.64
55171;BME280;41060;47.510;8.680;2023-02-02T11:52:18;98273.22;;;8.50;45.62
55171;BME280;41060;47.510;8.680;2023-02-02T11:54:48;98281.78;;;8.37;45.79
55171;BME280;41060;47.510;8.680;2023-02-02T11:57:17;98272.81;;;8.57;45.54
55171;BME280;41060;47.510;8.680;2023-02-02T11:59:47;98272.38;;;8.49;45.75
55171;BME280;41060;47.510;8.680;2023-02-02T12:02:26;98272.63;;;8.45;45.88
55171;BME280;41060;47.510;8.680;2023-02-02T12:04:55;98258.16;;;8.52;45.61
55171;BME280;41060;47.510;8.680;2023-02-02T12:07:40;98200.44;;;7.95;46.16
55171;BME280;41060;47.510;8.680;2023-02-02T12:10:14;98253.69;;;8.19;46.34
55171;BME280;41060;47.510;8.680;2023-02-02T12:12:51;98260.94;;;8.16;47.01
55171;BME280;41060;47.510;8.680;2023-02-02T12:15:30;98251.31;;;7.97;47.40
55171;BME280;41060;47.510;8.680;2023-02-02T12:18:09;98230.19;;;7.63;47.79
55171;BME280;41060;47.510;8.680;2023-02-02T12:20:46;98244.91;;;7.86;47.97
55171;BME280;41060;47.510;8.680;2023-02-02T12:26:07;98231.69;;;8.03;47.23
55171;BME280;41060;47.510;8.680;2023-02-02T12:28:48;98241.09;;;8.09;47.34
55171;BME280;41060;47.510;8.680;2023-02-02T12:31:24;98246.16;;;8.29;46.88
55171;BME280;41060;47.510;8.680;2023-02-02T12:34:01;98237.78;;;8.38;47.00
55171;BME280;41060;47.510;8.680;2023-02-02T12:36:32;98236.72;;;8.73;46.38
55171;BME280;41060;47.510;8.680;2023-02-02T12:39:24;98254.53;;;8.37;46.29
55171;BME280;41060;47.510;8.680;2023-02-02T12:42:06;98247.06;;;8.45;46.50
55171;BME280;41060;47.510;8.680;2023-02-02T12:44:45;98246.84;;;8.65;46.38
55171;BME280;41060;47.510;8.680;2023-02-02T12:47:23;98220.38;;;8.34;46.38
55171;BME280;41060;47.510;8.680;2023-02-02T12:50:03;98245.06;;;8.66;45.79
55171;BME280;41060;47.510;8.680;2023-02-02T12:52:52;98238.59;;;8.71;45.98
55171;BME280;41060;47.510;8.680;2023-02-02T12:55:32;98218.53;;;8.36;46.37
55171;BME280;41060;47.510;8.680;2023-02-02T12:58:05;98239.44;;;8.72;46.00
55171;BME280;41060;47.510;8.680;2023-02-02T13:03:41;98237.84;;;9.01;45.31
55171;BME280;41060;47.510;8.680;2023-02-02T13:06:33;98234.53;;;9.29;44.74
55171;BME280;41060;47.510;8.680;2023-02-02T13:09:10;98225.41;;;9.18;44.95
55171;BME280;41060;47.510;8.680;2023-02-02T13:11:41;98224.28;;;9.07;45.22
55171;BME280;41060;47.510;8.680;2023-02-02T13:14:16;98246.63;;;9.17;44.79
55171;BME280;41060;47.510;8.680;2023-02-02T13:16:49;98234.53;;;9.44;44.46
55171;BME280;41060;47.510;8.680;2023-02-02T13:19:25;98233.81;;;9.72;43.65
55171;BME280;41060;47.510;8.680;2023-02-02T13:21:57;98233.63;;;9.89;43.63
55171;BME280;41060;47.510;8.680;2023-02-02T13:24:27;98235.09;;;9.65;43.61
55171;BME280;41060;47.510;8.680;2023-02-02T13:26:57;98197.09;;;9.36;43.88
55171;BME280;41060;47.510;8.680;2023-02-02T13:29:31;98230.59;;;9.51;44.12
55171;BME280;41060;47.510;8.680;2023-02-02T13:32:03;98222.22;;;9.59;44.20
55171;BME280;41060;47.510;8.680;2023-02-02T13:34:39;98219.53;;;9.29;44.24
55171;BME280;41060;47.510;8.680;2023-02-02T13:37:17;98115.00;;;8.62;44.29
55171;BME280;41060;47.510;8.680;2023-02-02T13:39:53;98231.72;;;9.16;44.29